Airfield :
LOGIN :

Register | Disclaimer

   EN    FR    IT 

 










Legend :    VFR   Marginal VFR   IFR   Intensive IFR   Very Intensive IFR
Visi :
Ceiling :
>= 8 km
>= 3000ft
5 to 8 km
1000 to 3000 ft
1500m to 5 km
500 to 1000 ft
800 to 1500m
200 to 500 ft
< 800m
< 200 ft
Symbols :   Thunderstorms  Fog  Heavy snow  Heavy precipitations  Wind > 20 kt
SIGMETs :     Misc.  Thunderstorms  Icing  Turbulence  Mountain Waves  Volcanic Ashes







- Airport Elevation : 297 ft
- IATA code : UIP
- Download approach charts


LFRQ - Quimper Pluguffan

CURRENT METAR :
  • 181830Z AUTO 01002KT 9999 4600 NSC 06/05 Q1010 NOSIG

EXPIRED METARs :
  • 181800Z AUTO 35003KT 9999 ///TCU 07/06 Q1010 BECMG FEW020 SCT040
  • 181730Z AUTO VRB02KT 9999 FEW022/// SCT033/// BKN039/// ///CB 07/07 Q1010 TEMPO 4000 SHRA
  • 181700Z AUTO VRB02KT 9999 -RA FEW036/// OVC050/// ///CB 07/07 Q1010 TEMPO 4000 SHRA BKN016
  • 181630Z AUTO 15004KT 9999 -RA SCT041/// OVC050/// ///CB 08/07 Q1010 TEMPO 4000 SHRA BKN016
  • 181600Z AUTO 20008KT 7000 RA SCT008/// SCT020/// BKN041/// ///CB 08/07 Q1010 BECMG 14010KT NSW BKN016

TAF TAF LFRQ
Valid from the 18 at 18:00 until the 19 at 18:00 UTC


181700Z 1818/1918 VRB05KT 9999 FEW020 SCT040
TEMPO 1821/1912 4000 SHRA FEW015TCU BKN025
No reported NOTAMs for that airfield.



MET'MAP, your aeronautical weather chart ! - Copyright ORBIFLY December 2007 - Disclaimer

ORBIFLY MET'MAP TEAM :

Programming & Development : Alexandra Zaïnal
Concept & Development : Baudouin d'Aumeries
Co-Development & Prog : Marc-Olivier Méhu
Technical & hardware support : Manuel Goepfert

Contact : metmap@orbifly.com




SOURCES & CREDITS :

   NOAA